sensor_id;sensor_type;location;lat;lon;timestamp;pressure;altitude;pressure_sealevel;temperature;humidity
10796;BME280;5450;42.994;23.372;2022-08-20T00:00:14;95952.97;;;21.21;100.00
10796;BME280;5450;42.994;23.372;2022-08-20T00:02:46;95948.59;;;21.14;100.00
10796;BME280;5450;42.994;23.372;2022-08-20T00:05:20;95949.72;;;21.19;100.00
10796;BME280;5450;42.994;23.372;2022-08-20T00:07:50;95945.31;;;21.24;100.00
10796;BME280;5450;42.994;23.372;2022-08-20T00:10:20;95960.09;;;21.15;100.00
10796;BME280;5450;42.994;23.372;2022-08-20T00:12:52;95941.25;;;21.05;100.00
10796;BME280;5450;42.994;23.372;2022-08-20T00:15:24;95932.25;;;20.83;100.00
10796;BME280;5450;42.994;23.372;2022-08-20T00:17:53;95949.97;;;20.72;100.00
10796;BME280;5450;42.994;23.372;2022-08-20T00:20:22;95949.88;;;20.67;100.00
10796;BME280;5450;42.994;23.372;2022-08-20T00:22:50;95960.94;;;20.59;100.00
10796;BME280;5450;42.994;23.372;2022-08-20T00:25:19;95949.28;;;20.37;100.00
10796;BME280;5450;42.994;23.372;2022-08-20T00:27:46;95923.22;;;20.16;100.00
10796;BME280;5450;42.994;23.372;2022-08-20T00:30:17;95959.94;;;20.49;100.00
10796;BME280;5450;42.994;23.372;2022-08-20T00:32:47;95915.31;;;20.21;100.00
10796;BME280;5450;42.994;23.372;2022-08-20T00:35:17;95952.53;;;20.67;100.00
10796;BME280;5450;42.994;23.372;2022-08-20T00:37:45;95947.31;;;20.72;100.00
10796;BME280;5450;42.994;23.372;2022-08-20T00:40:15;95892.47;;;20.13;100.00
10796;BME280;5450;42.994;23.372;2022-08-20T00:42:44;95947.47;;;20.82;100.00
10796;BME280;5450;42.994;23.372;2022-08-20T00:45:12;95934.59;;;20.79;100.00
10796;BME280;5450;42.994;23.372;2022-08-20T00:47:42;95943.09;;;20.76;100.00
10796;BME280;5450;42.994;23.372;2022-08-20T00:50:11;95938.31;;;20.78;100.00
10796;BME280;5450;42.994;23.372;2022-08-20T00:52:42;95933.94;;;20.72;100.00
10796;BME280;5450;42.994;23.372;2022-08-20T00:55:11;95944.41;;;20.62;100.00
10796;BME280;5450;42.994;23.372;2022-08-20T00:57:44;95942.97;;;20.55;100.00
10796;BME280;5450;42.994;23.372;2022-08-20T01:00:15;95934.53;;;20.46;100.00
10796;BME280;5450;42.994;23.372;2022-08-20T01:02:44;95946.78;;;20.47;100.00
10796;BME280;5450;42.994;23.372;2022-08-20T01:05:12;95941.47;;;20.47;100.00
10796;BME280;5450;42.994;23.372;2022-08-20T01:07:45;95933.84;;;20.39;100.00
10796;BME280;5450;42.994;23.372;2022-08-20T01:10:17;95933.84;;;20.39;100.00
10796;BME280;5450;42.994;23.372;2022-08-20T01:12:49;95932.69;;;20.35;100.00
10796;BME280;5450;42.994;23.372;2022-08-20T01:15:26;95926.69;;;20.28;100.00
10796;BME280;5450;42.994;23.372;2022-08-20T01:17:58;95891.47;;;20.03;100.00
10796;BME280;5450;42.994;23.372;2022-08-20T01:21:00;95922.41;;;20.27;100.00
10796;BME280;5450;42.994;23.372;2022-08-20T01:23:36;95932.47;;;20.25;100.00
10796;BME280;5450;42.994;23.372;2022-08-20T01:26:11;95932.97;;;20.22;100.00
10796;BME280;5450;42.994;23.372;2022-08-20T01:28:42;95919.47;;;20.17;100.00
10796;BME280;5450;42.994;23.372;2022-08-20T01:31:41;95914.53;;;20.09;100.00
10796;BME280;5450;42.994;23.372;2022-08-20T01:34:18;95922.97;;;20.06;100.00
10796;BME280;5450;42.994;23.372;2022-08-20T01:36:48;95915.81;;;19.95;100.00
10796;BME280;5450;42.994;23.372;2022-08-20T01:39:19;95913.03;;;20.01;100.00
10796;BME280;5450;42.994;23.372;2022-08-20T01:41:52;95909.06;;;20.04;100.00
10796;BME280;5450;42.994;23.372;2022-08-20T01:44:21;95902.94;;;20.03;100.00
10796;BME280;5450;42.994;23.372;2022-08-20T01:46:50;95907.56;;;20.08;100.00
10796;BME280;5450;42.994;23.372;2022-08-20T01:49:21;95898.91;;;20.01;100.00
10796;BME280;5450;42.994;23.372;2022-08-20T01:51:49;95906.31;;;19.99;100.00
10796;BME280;5450;42.994;23.372;2022-08-20T01:54:18;95892.75;;;19.89;100.00
10796;BME280;5450;42.994;23.372;2022-08-20T01:56:54;95867.19;;;19.64;100.00
10796;BME280;5450;42.994;23.372;2022-08-20T01:59:22;95930.22;;;19.94;100.00
10796;BME280;5450;42.994;23.372;2022-08-20T02:01:50;95894.59;;;20.00;100.00
10796;BME280;5450;42.994;23.372;2022-08-20T02:04:17;95899.81;;;19.95;100.00
10796;BME280;5450;42.994;23.372;2022-08-20T02:06:53;95894.84;;;19.98;100.00
10796;BME280;5450;42.994;23.372;2022-08-20T02:09:21;95858.03;;;19.84;100.00
10796;BME280;5450;42.994;23.372;2022-08-20T02:15:12;95880.84;;;19.80;100.00
10796;BME280;5450;42.994;23.372;2022-08-20T02:17:41;95845.00;;;19.36;100.00
10796;BME280;5450;42.994;23.372;2022-08-20T02:20:11;95885.38;;;19.79;100.00
10796;BME280;5450;42.994;23.372;2022-08-20T02:22:42;95895.47;;;19.65;100.00
10796;BME280;5450;42.994;23.372;2022-08-20T02:25:12;95866.03;;;19.26;100.00
10796;BME280;5450;42.994;23.372;2022-08-20T02:27:43;95897.31;;;19.53;100.00
10796;BME280;5450;42.994;23.372;2022-08-20T02:30:17;95900.59;;;19.55;100.00
10796;BME280;5450;42.994;23.372;2022-08-20T02:32:51;95861.50;;;19.15;100.00
10796;BME280;5450;42.994;23.372;2022-08-20T02:35:20;95891.09;;;19.59;100.00
10796;BME280;5450;42.994;23.372;2022-08-20T02:37:47;95892.94;;;19.59;100.00
10796;BME280;5450;42.994;23.372;2022-08-20T02:40:16;95887.34;;;19.60;100.00
10796;BME280;5450;42.994;23.372;2022-08-20T02:42:43;95880.88;;;19.56;100.00
10796;BME280;5450;42.994;23.372;2022-08-20T02:45:14;95861.66;;;19.31;100.00
10796;BME280;5450;42.994;23.372;2022-08-20T02:47:43;95883.41;;;19.51;100.00
10796;BME280;5450;42.994;23.372;2022-08-20T02:50:12;95879.00;;;19.22;100.00
10796;BME280;5450;42.994;23.372;2022-08-20T02:52:43;95898.84;;;19.49;100.00
10796;BME280;5450;42.994;23.372;2022-08-20T02:55:12;95907.31;;;19.46;100.00
10796;BME280;5450;42.994;23.372;2022-08-20T02:57:41;95903.25;;;19.44;100.00
10796;BME280;5450;42.994;23.372;2022-08-20T03:00:11;95904.03;;;19.33;100.00
10796;BME280;5450;42.994;23.372;2022-08-20T03:02:44;95923.50;;;19.33;100.00
10796;BME280;5450;42.994;23.372;2022-08-20T03:05:16;95915.63;;;19.27;100.00
10796;BME280;5450;42.994;23.372;2022-08-20T03:07:46;95920.00;;;19.21;100.00
10796;BME280;5450;42.994;23.372;2022-08-20T03:10:14;95921.16;;;19.25;100.00
10796;BME280;5450;42.994;23.372;2022-08-20T03:12:41;95916.28;;;19.22;100.00
10796;BME280;5450;42.994;23.372;2022-08-20T03:15:09;95912.56;;;19.23;100.00
10796;BME280;5450;42.994;23.372;2022-08-20T03:17:36;95916.28;;;19.22;100.00
10796;BME280;5450;42.994;23.372;2022-08-20T03:20:07;95923.94;;;19.19;100.00
10796;BME280;5450;42.994;23.372;2022-08-20T03:23:06;95911.31;;;19.26;100.00
10796;BME280;5450;42.994;23.372;2022-08-20T03:25:35;95906.66;;;19.21;100.00
10796;BME280;5450;42.994;23.372;2022-08-20T03:28:02;95916.88;;;19.24;100.00
10796;BME280;5450;42.994;23.372;2022-08-20T03:30:30;95906.09;;;19.19;100.00
10796;BME280;5450;42.994;23.372;2022-08-20T03:32:59;95883.59;;;19.04;100.00
10796;BME280;5450;42.994;23.372;2022-08-20T03:35:29;95902.25;;;19.04;100.00
10796;BME280;5450;42.994;23.372;2022-08-20T03:38:05;95911.41;;;18.96;100.00
10796;BME280;5450;42.994;23.372;2022-08-20T03:40:33;95917.88;;;19.00;100.00
10796;BME280;5450;42.994;23.372;2022-08-20T03:43:01;95915.13;;;19.07;100.00
10796;BME280;5450;42.994;23.372;2022-08-20T03:45:28;95897.38;;;18.89;100.00
10796;BME280;5450;42.994;23.372;2022-08-20T03:47:57;95917.53;;;19.08;100.00
10796;BME280;5450;42.994;23.372;2022-08-20T03:50:30;95918.69;;;19.01;100.00
10796;BME280;5450;42.994;23.372;2022-08-20T03:52:57;95930.03;;;18.96;100.00
10796;BME280;5450;42.994;23.372;2022-08-20T03:55:26;95917.97;;;18.93;100.00
10796;BME280;5450;42.994;23.372;2022-08-20T03:57:57;95918.81;;;18.94;100.00
10796;BME280;5450;42.994;23.372;2022-08-20T04:00:27;95924.72;;;18.96;100.00
10796;BME280;5450;42.994;23.372;2022-08-20T04:02:55;95799.31;;;17.92;100.00
10796;BME280;5450;42.994;23.372;2022-08-20T04:05:23;95917.16;;;18.93;100.00
10796;BME280;5450;42.994;23.372;2022-08-20T04:07:53;95920.50;;;18.88;100.00
10796;BME280;5450;42.994;23.372;2022-08-20T04:10:20;95929.91;;;18.91;100.00
10796;BME280;5450;42.994;23.372;2022-08-20T04:12:48;95847.28;;;18.45;100.00
10796;BME280;5450;42.994;23.372;2022-08-20T04:15:16;95915.09;;;18.95;100.00
10796;BME280;5450;42.994;23.372;2022-08-20T04:17:46;95915.47;;;18.99;100.00
10796;BME280;5450;42.994;23.372;2022-08-20T04:20:18;95908.97;;;18.95;100.00
10796;BME280;5450;42.994;23.372;2022-08-20T04:22:54;95880.19;;;18.73;100.00
10796;BME280;5450;42.994;23.372;2022-08-20T04:25:23;95925.28;;;18.98;100.00
10796;BME280;5450;42.994;23.372;2022-08-20T04:27:50;95916.28;;;18.99;100.00
10796;BME280;5450;42.994;23.372;2022-08-20T04:30:19;95917.53;;;18.97;100.00
10796;BME280;5450;42.994;23.372;2022-08-20T04:36:00;95919.03;;;19.04;100.00
10796;BME280;5450;42.994;23.372;2022-08-20T04:41:38;95807.56;;;18.32;100.00
10796;BME280;5450;42.994;23.372;2022-08-20T04:44:06;95914.88;;;18.97;100.00
10796;BME280;5450;42.994;23.372;2022-08-20T04:46:33;95909.53;;;19.08;100.00
10796;BME280;5450;42.994;23.372;2022-08-20T04:49:31;95917.66;;;19.13;100.00
10796;BME280;5450;42.994;23.372;2022-08-20T04:51:58;95921.16;;;19.14;100.00
10796;BME280;5450;42.994;23.372;2022-08-20T04:54:26;95835.06;;;18.26;100.00
10796;BME280;5450;42.994;23.372;2022-08-20T04:56:55;95853.00;;;18.60;100.00
10796;BME280;5450;42.994;23.372;2022-08-20T04:59:22;95904.47;;;19.07;100.00
10796;BME280;5450;42.994;23.372;2022-08-20T05:01:49;95920.69;;;19.28;100.00
10796;BME280;5450;42.994;23.372;2022-08-20T05:04:17;95921.53;;;19.29;100.00
10796;BME280;5450;42.994;23.372;2022-08-20T05:06:44;95926.28;;;19.38;100.00
10796;BME280;5450;42.994;23.372;2022-08-20T05:09:17;95919.56;;;19.47;100.00
10796;BME280;5450;42.994;23.372;2022-08-20T05:11:46;95915.75;;;19.55;100.00
10796;BME280;5450;42.994;23.372;2022-08-20T05:14:15;95913.19;;;19.72;100.00
10796;BME280;5450;42.994;23.372;2022-08-20T05:16:42;95920.50;;;19.88;100.00
10796;BME280;5450;42.994;23.372;2022-08-20T05:19:11;95899.41;;;19.75;100.00
10796;BME280;5450;42.994;23.372;2022-08-20T05:21:40;95921.13;;;20.06;100.00
10796;BME280;5450;42.994;23.372;2022-08-20T05:24:09;95921.47;;;20.21;100.00
10796;BME280;5450;42.994;23.372;2022-08-20T05:26:36;95917.16;;;20.32;100.00
10796;BME280;5450;42.994;23.372;2022-08-20T05:29:04;95916.88;;;20.45;100.00
10796;BME280;5450;42.994;23.372;2022-08-20T05:31:34;95801.94;;;19.67;100.00
10796;BME280;5450;42.994;23.372;2022-08-20T05:34:04;95914.91;;;20.69;100.00
10796;BME280;5450;42.994;23.372;2022-08-20T05:36:34;95905.16;;;20.74;100.00
10796;BME280;5450;42.994;23.372;2022-08-20T05:39:02;95933.66;;;20.85;100.00
10796;BME280;5450;42.994;23.372;2022-08-20T05:48:55;95909.50;;;21.42;100.00
10796;BME280;5450;42.994;23.372;2022-08-20T05:55:06;95856.75;;;21.54;100.00
10796;BME280;5450;42.994;23.372;2022-08-20T06:01:15;95764.41;;;21.46;100.00
10796;BME280;5450;42.994;23.372;2022-08-20T06:07:28;95869.69;;;22.48;100.00
10796;BME280;5450;42.994;23.372;2022-08-20T06:17:04;95881.97;;;22.93;100.00
10796;BME280;5450;42.994;23.372;2022-08-20T06:19:56;95878.84;;;23.06;100.00
10796;BME280;5450;42.994;23.372;2022-08-20T06:29:26;95787.22;;;23.09;100.00
10796;BME280;5450;42.994;23.372;2022-08-20T06:32:19;95862.75;;;23.79;100.00
10796;BME280;5450;42.994;23.372;2022-08-20T06:34:48;95868.19;;;23.94;100.00
10796;BME280;5450;42.994;23.372;2022-08-20T06:37:42;95860.50;;;24.13;100.00
10796;BME280;5450;42.994;23.372;2022-08-20T06:43:30;95853.91;;;24.46;100.00
10796;BME280;5450;42.994;23.372;2022-08-20T06:46:01;95791.25;;;24.15;100.00
10796;BME280;5450;42.994;23.372;2022-08-20T06:48:29;95829.25;;;24.64;97.31
10796;BME280;5450;42.994;23.372;2022-08-20T06:50:58;95859.41;;;24.96;96.97
10796;BME280;5450;42.994;23.372;2022-08-20T06:53:26;95849.19;;;25.13;97.09
10796;BME280;5450;42.994;23.372;2022-08-20T06:55:54;95856.44;;;25.28;96.12
10796;BME280;5450;42.994;23.372;2022-08-20T06:58:26;95815.81;;;25.39;96.13
10796;BME280;5450;42.994;23.372;2022-08-20T07:01:23;95826.00;;;25.73;95.40
10796;BME280;5450;42.994;23.372;2022-08-20T07:04:17;95822.16;;;25.94;93.50
10796;BME280;5450;42.994;23.372;2022-08-20T07:06:45;95771.66;;;25.66;93.30
10796;BME280;5450;42.994;23.372;2022-08-20T07:09:17;95820.41;;;26.28;90.41
10796;BME280;5450;42.994;23.372;2022-08-20T07:11:44;95815.44;;;26.50;88.55
10796;BME280;5450;42.994;23.372;2022-08-20T07:14:13;95784.69;;;26.51;89.87
10796;BME280;5450;42.994;23.372;2022-08-20T07:16:42;95745.50;;;26.30;90.09
10796;BME280;5450;42.994;23.372;2022-08-20T07:19:15;95794.00;;;27.08;89.66
10796;BME280;5450;42.994;23.372;2022-08-20T07:28:27;95782.41;;;27.64;82.41
10796;BME280;5450;42.994;23.372;2022-08-20T07:31:02;95744.38;;;27.61;81.30
10796;BME280;5450;42.994;23.372;2022-08-20T07:33:48;95765.50;;;28.01;79.03
10796;BME280;5450;42.994;23.372;2022-08-20T07:39:37;95766.56;;;28.42;81.90
10796;BME280;5450;42.994;23.372;2022-08-20T07:46:00;95771.81;;;28.90;75.57
10796;BME280;5450;42.994;23.372;2022-08-20T07:52:17;95764.53;;;29.36;73.93
10796;BME280;5450;42.994;23.372;2022-08-20T07:57:51;95695.56;;;29.34;69.91
10796;BME280;5450;42.994;23.372;2022-08-20T08:00:24;95694.78;;;29.47;67.87
10796;BME280;5450;42.994;23.372;2022-08-20T08:03:26;95762.84;;;30.22;67.41
10796;BME280;5450;42.994;23.372;2022-08-20T08:05:59;95727.41;;;30.18;63.96
10796;BME280;5450;42.994;23.372;2022-08-20T08:08:33;95751.50;;;30.33;64.61
10796;BME280;5450;42.994;23.372;2022-08-20T08:11:03;95720.56;;;30.34;63.10
10796;BME280;5450;42.994;23.372;2022-08-20T08:13:38;95693.06;;;30.27;62.00
10796;BME280;5450;42.994;23.372;2022-08-20T08:16:07;95721.47;;;30.65;60.34
10796;BME280;5450;42.994;23.372;2022-08-20T08:21:56;95716.81;;;31.10;61.02
10796;BME280;5450;42.994;23.372;2022-08-20T08:27:50;95733.94;;;31.41;58.18
10796;BME280;5450;42.994;23.372;2022-08-20T08:30:51;95727.50;;;31.60;57.31
10796;BME280;5450;42.994;23.372;2022-08-20T08:33:27;95689.88;;;31.45;57.49
10796;BME280;5450;42.994;23.372;2022-08-20T08:35:57;95669.91;;;31.49;57.46
10796;BME280;5450;42.994;23.372;2022-08-20T08:38:31;95728.75;;;32.10;55.23
10796;BME280;5450;42.994;23.372;2022-08-20T08:41:31;95719.66;;;32.32;54.55
10796;BME280;5450;42.994;23.372;2022-08-20T08:44:22;95721.44;;;32.36;53.40
10796;BME280;5450;42.994;23.372;2022-08-20T08:47:24;95709.25;;;32.42;52.70
10796;BME280;5450;42.994;23.372;2022-08-20T08:49:56;95709.00;;;32.52;51.79
10796;BME280;5450;42.994;23.372;2022-08-20T08:55:51;95694.56;;;32.77;51.57
10796;BME280;5450;42.994;23.372;2022-08-20T08:58:19;95700.91;;;32.99;50.69
10796;BME280;5450;42.994;23.372;2022-08-20T09:00:47;95694.50;;;33.12;49.66
10796;BME280;5450;42.994;23.372;2022-08-20T09:03:24;95691.25;;;33.27;49.03
10796;BME280;5450;42.994;23.372;2022-08-20T09:05:59;95688.50;;;33.44;51.64
10796;BME280;5450;42.994;23.372;2022-08-20T09:08:32;95696.63;;;33.61;50.06
10796;BME280;5450;42.994;23.372;2022-08-20T09:14:31;95681.25;;;33.86;47.24
10796;BME280;5450;42.994;23.372;2022-08-20T09:17:00;95665.22;;;33.55;46.55
10796;BME280;5450;42.994;23.372;2022-08-20T09:19:28;95684.22;;;33.72;48.07
10796;BME280;5450;42.994;23.372;2022-08-20T09:21:55;95676.06;;;33.93;48.06
10796;BME280;5450;42.994;23.372;2022-08-20T09:24:54;95691.41;;;34.06;47.50
10796;BME280;5450;42.994;23.372;2022-08-20T09:27:21;95695.59;;;34.03;48.20
10796;BME280;5450;42.994;23.372;2022-08-20T09:29:49;95686.38;;;34.16;47.97
10796;BME280;5450;42.994;23.372;2022-08-20T09:32:22;95684.91;;;34.19;45.98
10796;BME280;5450;42.994;23.372;2022-08-20T09:34:54;95684.28;;;34.13;49.39
10796;BME280;5450;42.994;23.372;2022-08-20T09:37:28;95678.00;;;34.21;45.30
10796;BME280;5450;42.994;23.372;2022-08-20T09:39:59;95557.88;;;33.47;46.99
10796;BME280;5450;42.994;23.372;2022-08-20T09:42:33;95671.94;;;34.37;44.11
10796;BME280;5450;42.994;23.372;2022-08-20T09:48:33;95658.06;;;34.42;45.70
10796;BME280;5450;42.994;23.372;2022-08-20T09:54:09;95598.59;;;33.73;43.88
10796;BME280;5450;42.994;23.372;2022-08-20T09:57:07;95666.56;;;34.28;43.23
10796;BME280;5450;42.994;23.372;2022-08-20T10:03:03;95642.75;;;34.37;41.57
10796;BME280;5450;42.994;23.372;2022-08-20T10:05:54;95670.06;;;34.70;40.35
10796;BME280;5450;42.994;23.372;2022-08-20T10:12:23;95666.38;;;34.86;41.06
10796;BME280;5450;42.994;23.372;2022-08-20T10:14:53;95635.53;;;34.74;41.06
10796;BME280;5450;42.994;23.372;2022-08-20T10:20:51;95625.44;;;34.54;39.03
10796;BME280;5450;42.994;23.372;2022-08-20T10:26:54;95650.38;;;34.23;40.62
10796;BME280;5450;42.994;23.372;2022-08-20T10:32:52;95639.25;;;34.49;40.58
10796;BME280;5450;42.994;23.372;2022-08-20T10:35:51;95636.94;;;34.39;39.02
10796;BME280;5450;42.994;23.372;2022-08-20T10:41:51;95622.88;;;34.49;38.59
10796;BME280;5450;42.994;23.372;2022-08-20T10:47:48;95630.41;;;34.31;36.39
10796;BME280;5450;42.994;23.372;2022-08-20T10:53:47;95619.91;;;34.21;34.76
10796;BME280;5450;42.994;23.372;2022-08-20T10:59:49;95616.91;;;34.34;34.36
10796;BME280;5450;42.994;23.372;2022-08-20T11:02:35;95608.66;;;34.43;34.61
10796;BME280;5450;42.994;23.372;2022-08-20T11:08:33;95537.13;;;33.84;34.04
10796;BME280;5450;42.994;23.372;2022-08-20T11:14:31;95603.00;;;34.81;34.28
10796;BME280;5450;42.994;23.372;2022-08-20T11:17:04;95603.69;;;34.90;33.02
10796;BME280;5450;42.994;23.372;2022-08-20T11:23:02;95587.53;;;34.85;31.10
10796;BME280;5450;42.994;23.372;2022-08-20T11:28:58;95591.97;;;34.77;34.17
10796;BME280;5450;42.994;23.372;2022-08-20T11:34:54;95579.50;;;34.56;35.57
10796;BME280;5450;42.994;23.372;2022-08-20T11:40:53;95572.72;;;34.41;37.08
10796;BME280;5450;42.994;23.372;2022-08-20T11:46:51;95563.28;;;34.39;37.80
10796;BME280;5450;42.994;23.372;2022-08-20T11:49:18;95551.94;;;34.49;36.24
10796;BME280;5450;42.994;23.372;2022-08-20T11:51:54;95556.53;;;34.57;36.15
10796;BME280;5450;42.994;23.372;2022-08-20T11:57:51;95522.63;;;34.13;36.74
10796;BME280;5450;42.994;23.372;2022-08-20T12:00:21;95506.38;;;34.16;37.63
10796;BME280;5450;42.994;23.372;2022-08-20T12:06:20;95546.91;;;34.39;43.55
10796;BME280;5450;42.994;23.372;2022-08-20T12:09:11;95543.59;;;34.33;44.38
10796;BME280;5450;42.994;23.372;2022-08-20T12:12:16;95542.38;;;34.43;44.45
10796;BME280;5450;42.994;23.372;2022-08-20T12:18:15;95531.56;;;34.01;44.58
10796;BME280;5450;42.994;23.372;2022-08-20T12:20:47;95545.22;;;33.93;45.58
10796;BME280;5450;42.994;23.372;2022-08-20T12:23:48;95555.22;;;33.89;46.62
10796;BME280;5450;42.994;23.372;2022-08-20T12:29:31;95549.38;;;33.49;48.57
10796;BME280;5450;42.994;23.372;2022-08-20T12:35:23;95552.81;;;33.08;49.78
10796;BME280;5450;42.994;23.372;2022-08-20T12:37:54;95564.31;;;32.67;52.65
10796;BME280;5450;42.994;23.372;2022-08-20T12:57:23;95637.72;;;29.16;72.27
10796;BME280;5450;42.994;23.372;2022-08-20T13:03:36;95694.63;;;28.79;74.87
10796;BME280;5450;42.994;23.372;2022-08-20T13:20:13;95706.91;;;28.39;79.21
10796;BME280;5450;42.994;23.372;2022-08-20T13:26:02;95738.81;;;28.18;81.37
10796;BME280;5450;42.994;23.372;2022-08-20T13:35:58;95750.69;;;27.23;92.16
10796;BME280;5450;42.994;23.372;2022-08-20T13:38:25;95761.63;;;27.08;92.90
10796;BME280;5450;42.994;23.372;2022-08-20T13:44:27;95811.47;;;26.38;93.98
10796;BME280;5450;42.994;23.372;2022-08-20T13:53:35;95774.81;;;26.42;100.00
10796;BME280;5450;42.994;23.372;2022-08-20T14:06:32;95730.19;;;25.77;100.00
10796;BME280;5450;42.994;23.372;2022-08-20T14:09:26;95795.31;;;25.69;100.00
10796;BME280;5450;42.994;23.372;2022-08-20T14:11:58;95781.97;;;25.18;100.00
10796;BME280;5450;42.994;23.372;2022-08-20T14:18:01;95748.13;;;24.62;100.00
10796;BME280;5450;42.994;23.372;2022-08-20T14:24:03;95820.97;;;25.01;100.00
10796;BME280;5450;42.994;23.372;2022-08-20T14:26:33;95844.31;;;24.80;100.00
10796;BME280;5450;42.994;23.372;2022-08-20T14:43:18;95908.81;;;24.75;100.00
10796;BME280;5450;42.994;23.372;2022-08-20T14:45:47;95728.72;;;23.38;100.00
10796;BME280;5450;42.994;23.372;2022-08-20T14:54:56;95899.25;;;24.27;100.00
10796;BME280;5450;42.994;23.372;2022-08-20T14:57:23;95910.59;;;23.97;100.00
10796;BME280;5450;42.994;23.372;2022-08-20T14:59:53;95812.38;;;23.03;100.00
10796;BME280;5450;42.994;23.372;2022-08-20T15:06:01;95869.63;;;23.65;100.00
10796;BME280;5450;42.994;23.372;2022-08-20T15:08:31;95881.97;;;23.61;100.00
10796;BME280;5450;42.994;23.372;2022-08-20T15:18:22;95850.41;;;23.73;100.00
10796;BME280;5450;42.994;23.372;2022-08-20T15:31:27;95798.53;;;23.16;100.00
10796;BME280;5450;42.994;23.372;2022-08-20T15:44:37;95610.75;;;22.76;100.00
10796;BME280;5450;42.994;23.372;2022-08-20T15:54:30;95613.59;;;23.16;100.00
10796;BME280;5450;42.994;23.372;2022-08-20T16:00:49;95489.94;;;22.20;100.00
10796;BME280;5450;42.994;23.372;2022-08-20T16:03:37;95485.69;;;21.82;100.00
10796;BME280;5450;42.994;23.372;2022-08-20T16:06:10;95439.03;;;21.68;100.00
10796;BME280;5450;42.994;23.372;2022-08-20T16:16:05;95619.31;;;22.83;100.00
10796;BME280;5450;42.994;23.372;2022-08-20T16:22:15;95529.91;;;22.42;100.00
10796;BME280;5450;42.994;23.372;2022-08-20T16:24:44;95594.06;;;22.63;100.00
10796;BME280;5450;42.994;23.372;2022-08-20T16:34:37;95593.94;;;22.90;100.00
10796;BME280;5450;42.994;23.372;2022-08-20T16:37:33;95610.63;;;23.07;100.00
10796;BME280;5450;42.994;23.372;2022-08-20T16:43:46;95466.16;;;22.24;100.00
10796;BME280;5450;42.994;23.372;2022-08-20T16:46:17;95536.47;;;22.61;100.00
10796;BME280;5450;42.994;23.372;2022-08-20T17:03:30;95750.03;;;22.81;100.00
10796;BME280;5450;42.994;23.372;2022-08-20T17:13:24;95784.84;;;22.76;100.00
10796;BME280;5450;42.994;23.372;2022-08-20T17:27:34;95865.34;;;22.96;100.00
10796;BME280;5450;42.994;23.372;2022-08-20T17:37:25;95773.63;;;21.99;100.00
10796;BME280;5450;42.994;23.372;2022-08-20T17:51:00;95859.00;;;22.00;100.00
10796;BME280;5450;42.994;23.372;2022-08-20T18:00:10;95824.78;;;21.64;100.00
10796;BME280;5450;42.994;23.372;2022-08-20T18:06:52;95884.41;;;22.24;100.00
10796;BME280;5450;42.994;23.372;2022-08-20T18:13:06;95829.38;;;21.47;100.00
10796;BME280;5450;42.994;23.372;2022-08-20T18:19:37;95850.91;;;21.57;100.00
10796;BME280;5450;42.994;23.372;2022-08-20T18:22:14;95829.47;;;21.73;100.00
10796;BME280;5450;42.994;23.372;2022-08-20T18:25:08;95909.50;;;22.40;100.00
10796;BME280;5450;42.994;23.372;2022-08-20T18:31:24;95873.84;;;21.91;100.00
10796;BME280;5450;42.994;23.372;2022-08-20T18:38:09;95935.44;;;22.39;100.00
10796;BME280;5450;42.994;23.372;2022-08-20T18:44:27;95876.78;;;21.73;100.00
10796;BME280;5450;42.994;23.372;2022-08-20T18:47:21;95955.34;;;22.05;100.00
10796;BME280;5450;42.994;23.372;2022-08-20T18:53:32;95924.44;;;21.59;100.00
10796;BME280;5450;42.994;23.372;2022-08-20T19:00:06;96004.44;;;22.32;100.00
10796;BME280;5450;42.994;23.372;2022-08-20T19:06:29;95996.13;;;22.12;100.00
10796;BME280;5450;42.994;23.372;2022-08-20T19:13:12;96024.19;;;22.48;100.00
10796;BME280;5450;42.994;23.372;2022-08-20T19:29:54;95985.09;;;21.87;100.00
10796;BME280;5450;42.994;23.372;2022-08-20T19:32:24;95893.53;;;21.47;100.00
10796;BME280;5450;42.994;23.372;2022-08-20T19:41:48;95999.66;;;22.34;100.00
10796;BME280;5450;42.994;23.372;2022-08-20T19:44:32;95984.00;;;22.26;100.00
10796;BME280;5450;42.994;23.372;2022-08-20T19:47:30;96006.47;;;22.25;100.00
10796;BME280;5450;42.994;23.372;2022-08-20T19:53:44;95893.34;;;21.53;100.00
10796;BME280;5450;42.994;23.372;2022-08-20T19:56:14;95919.28;;;21.53;100.00
10796;BME280;5450;42.994;23.372;2022-08-20T20:13:07;95869.56;;;21.19;100.00
10796;BME280;5450;42.994;23.372;2022-08-20T20:19:18;95901.75;;;21.62;100.00
10796;BME280;5450;42.994;23.372;2022-08-20T20:36:11;95841.06;;;21.41;100.00
10796;BME280;5450;42.994;23.372;2022-08-20T20:42:27;95889.53;;;21.82;100.00
10796;BME280;5450;42.994;23.372;2022-08-20T20:44:54;95899.81;;;21.74;100.00
10796;BME280;5450;42.994;23.372;2022-08-20T20:47:48;95866.66;;;21.75;100.00
10796;BME280;5450;42.994;23.372;2022-08-20T20:50:28;95856.03;;;21.80;100.00
10796;BME280;5450;42.994;23.372;2022-08-20T20:52:57;95757.97;;;20.87;100.00
10796;BME280;5450;42.994;23.372;2022-08-20T21:06:12;95876.56;;;21.20;100.00
10796;BME280;5450;42.994;23.372;2022-08-20T21:12:22;95828.44;;;20.86;100.00
10796;BME280;5450;42.994;23.372;2022-08-20T21:14:55;95854.94;;;21.04;100.00
10796;BME280;5450;42.994;23.372;2022-08-20T21:20:47;95847.97;;;21.03;100.00
10796;BME280;5450;42.994;23.372;2022-08-20T21:23:16;95791.53;;;20.50;100.00
10796;BME280;5450;42.994;23.372;2022-08-20T21:25:44;95847.28;;;20.80;100.00
10796;BME280;5450;42.994;23.372;2022-08-20T21:28:12;95825.69;;;20.98;100.00
10796;BME280;5450;42.994;23.372;2022-08-20T21:30:39;95748.19;;;20.26;100.00
10796;BME280;5450;42.994;23.372;2022-08-20T21:40:29;95803.06;;;21.39;100.00
10796;BME280;5450;42.994;23.372;2022-08-20T21:50:20;95752.06;;;20.85;100.00